Time;durP1;ratioP1;P1;durP2;ratioP2;P2;SDS_P1;SDS_P2;PMS_P1;PMS_P2;Temp;Humidity;BMP_temperature;BMP_pressure;BME280_temperature;BME280_humidity;BME280_pressure;Samples;Min_cycle;Max_cycle;Signal;HPM_P1;HPM_P2
2022/11/26 00:00:53;;;;;;;4.53;3.27;;;11.60;79.00;11.60;97243.00;;;;5051786;28;20228;-86
2022/11/26 00:03:21;;;;;;;4.73;3.30;;;11.60;78.90;11.50;97246.00;;;;5053921;28;20252;-86
2022/11/26 00:05:55;;;;;;;4.90;3.70;;;11.50;78.90;11.60;97243.00;;;;5055099;28;20312;-86
2022/11/26 00:08:28;;;;;;;4.33;3.17;;;11.50;79.00;11.60;97244.00;;;;5049494;28;20210;-86
2022/11/26 00:10:55;;;;;;;4.83;3.33;;;11.50;79.00;11.50;97245.00;;;;5054569;28;20200;-86
2022/11/26 00:13:26;;;;;;;3.80;3.50;;;11.50;78.90;11.60;97244.00;;;;5055278;28;20630;-86
2022/11/26 00:15:53;;;;;;;4.10;3.70;;;11.50;78.90;11.50;97248.00;;;;5055191;28;20254;-86
2022/11/26 00:18:22;;;;;;;13.73;4.03;;;11.50;78.90;11.50;97244.00;;;;5055181;28;20291;-86
2022/11/26 00:20:55;;;;;;;4.00;2.80;;;11.50;78.90;11.50;97240.00;;;;5054407;28;20204;-86
2022/11/26 00:23:26;;;;;;;6.40;3.37;;;11.50;78.90;11.50;97252.00;;;;5050633;28;20267;-86
2022/11/26 00:25:59;;;;;;;12.73;4.03;;;11.50;79.70;11.50;97243.00;;;;5048712;28;20244;-86
2022/11/26 00:28:32;;;;;;;34.80;5.33;;;11.50;78.90;11.50;97254.00;;;;5051888;28;20200;-86
2022/11/26 00:31:03;;;;;;;3.70;2.90;;;11.50;79.00;11.50;97256.00;;;;5045817;28;20291;-86
2022/11/26 00:33:32;;;;;;;8.40;3.43;;;11.50;79.10;11.50;97255.00;;;;5050663;28;20288;-86
2022/11/26 00:36:07;;;;;;;9.43;3.50;;;11.50;79.10;11.50;97259.00;;;;5050558;28;20255;-86
2022/11/26 00:38:34;;;;;;;3.70;3.20;;;11.50;79.10;11.50;97261.00;;;;5051259;28;20212;-86
2022/11/26 00:41:01;;;;;;;9.80;3.33;;;11.50;79.10;11.60;97266.00;;;;5054297;28;20280;-87
2022/11/26 00:43:28;;;;;;;5.30;3.77;;;11.50;79.10;11.50;97254.00;;;;5054633;28;20260;-86
2022/11/26 00:45:56;;;;;;;8.10;3.70;;;11.50;79.10;11.50;97263.00;;;;5054579;28;20225;-86
2022/11/26 00:48:23;;;;;;;13.07;3.60;;;11.50;79.00;11.50;97268.00;;;;5054732;28;20227;-86
2022/11/26 00:50:51;;;;;;;4.10;2.93;;;11.50;79.00;11.50;97268.00;;;;5055003;28;20290;-86
2022/11/26 00:53:25;;;;;;;4.30;3.90;;;11.50;78.80;11.50;97275.00;;;;5054258;28;20299;-86
2022/11/26 00:55:53;;;;;;;3.80;3.07;;;11.50;78.70;11.50;97270.00;;;;5053690;28;20224;-86
2022/11/26 00:58:25;;;;;;;5.27;3.63;;;11.50;78.60;11.40;97269.00;;;;5054016;28;20601;-86
2022/11/26 01:00:54;;;;;;;4.73;3.70;;;11.50;78.60;11.40;97272.00;;;;5053914;28;20284;-86
2022/11/26 01:03:21;;;;;;;8.73;4.13;;;11.50;78.60;11.40;97284.00;;;;5047053;28;20224;-85
2022/11/26 01:05:51;;;;;;;6.10;3.80;;;11.40;78.50;11.40;97282.00;;;;5054322;28;20243;-86
2022/11/26 01:08:32;;;;;;;4.97;3.30;;;11.40;78.60;11.30;97292.00;;;;5054328;28;20228;-86
2022/11/26 01:11:01;;;;;;;9.70;3.47;;;11.40;78.40;11.40;97292.00;;;;5044904;28;20285;-85
2022/11/26 01:13:30;;;;;;;3.97;3.47;;;11.40;78.60;11.30;97298.00;;;;5052649;28;20239;-86
2022/11/26 01:16:00;;;;;;;6.60;3.53;;;11.40;78.70;11.30;97293.00;;;;5053336;28;20299;-86
2022/11/26 01:18:30;;;;;;;9.93;4.07;;;11.40;78.70;11.30;97302.00;;;;5053673;28;20258;-86
2022/11/26 01:20:57;;;;;;;7.30;3.17;;;11.40;78.90;11.30;97294.00;;;;5053529;28;20288;-85
2022/11/26 01:23:26;;;;;;;5.70;3.10;;;11.40;79.00;11.30;97290.00;;;;5053380;28;20256;-86
2022/11/26 01:25:53;;;;;;;3.90;3.33;;;11.40;79.10;11.40;97306.00;;;;5049612;28;20594;-86
2022/11/26 01:28:20;;;;;;;7.17;3.30;;;11.40;79.00;11.40;97301.00;;;;5050653;28;20209;-86
2022/11/26 01:30:48;;;;;;;4.70;3.07;;;11.40;79.00;11.40;97304.00;;;;5053245;28;20712;-85
2022/11/26 01:33:15;;;;;;;21.20;4.50;;;11.40;79.00;11.40;97302.00;;;;5052830;28;20978;-86
2022/11/26 01:35:42;;;;;;;3.57;2.77;;;11.40;79.00;11.40;97303.00;;;;5052561;28;20736;-86
2022/11/26 01:38:14;;;;;;;13.63;3.63;;;11.40;79.10;11.40;97310.00;;;;5052550;28;20262;-85
2022/11/26 01:41:08;;;;;;;6.20;3.03;;;11.40;79.20;11.40;97315.00;;;;5053140;28;20205;-85
2022/11/26 01:43:41;;;;;;;33.07;4.57;;;11.40;79.10;11.40;97308.00;;;;5048049;28;20229;-86
2022/11/26 01:46:16;;;;;;;5.63;3.20;;;11.40;79.10;11.40;97319.00;;;;5039112;28;20629;-85
2022/11/26 01:48:43;;;;;;;16.93;3.70;;;11.40;79.10;11.40;97316.00;;;;5053170;28;20283;-85
2022/11/26 01:51:12;;;;;;;12.17;3.80;;;11.40;79.10;11.40;97323.00;;;;5052216;28;20224;-86
2022/11/26 01:53:47;;;;;;;5.10;3.03;;;11.40;79.10;11.40;97324.00;;;;5052212;28;20299;-86
2022/11/26 01:56:30;;;;;;;6.50;3.00;;;11.40;79.00;11.40;97323.00;;;;5050152;28;20252;-86
2022/11/26 01:59:05;;;;;;;12.23;3.60;;;11.40;78.90;11.40;97331.00;;;;5049116;28;20561;-86
2022/11/26 02:01:33;;;;;;;5.83;3.50;;;11.40;79.00;11.40;97323.00;;;;5052108;28;20234;-85
2022/11/26 02:04:12;;;;;;;4.13;3.13;;;11.40;79.10;11.40;97334.00;;;;5042729;28;20213;-85
2022/11/26 02:06:42;;;;;;;4.23;3.03;;;11.40;79.10;11.40;97334.00;;;;5046493;28;20220;-86
2022/11/26 02:09:11;;;;;;;9.10;3.20;;;11.40;79.20;11.40;97326.00;;;;5052819;28;20205;-85
2022/11/26 02:11:40;;;;;;;4.77;3.07;;;11.40;79.20;11.40;97330.00;;;;5056977;28;20287;-85
2022/11/26 02:14:14;;;;;;;4.73;2.50;;;11.40;79.20;11.40;97328.00;;;;5044526;28;20208;-85
2022/11/26 02:17:13;;;;;;;9.17;2.90;;;11.40;79.20;11.40;97331.00;;;;5051747;28;20271;-86
2022/11/26 02:20:16;;;;;;;6.20;2.67;;;11.40;79.10;11.40;97340.00;;;;5050084;28;20199;-85
2022/11/26 02:23:17;;;;;;;13.63;3.90;;;11.40;79.10;11.40;97338.00;;;;5055526;28;20645;-86
2022/11/26 02:26:22;;;;;;;3.27;2.70;;;11.40;79.10;11.40;97342.00;;;;5049877;28;20316;-86
2022/11/26 02:29:05;;;;;;;6.73;2.90;;;11.40;79.20;11.40;97335.00;;;;5050449;28;20252;-85
2022/11/26 02:31:42;;;;;;;3.33;2.80;;;11.40;79.20;11.40;97335.00;;;;5051069;28;20228;-85
2022/11/26 02:34:18;;;;;;;2.70;2.37;;;11.40;79.20;11.40;97350.00;;;;5056088;28;20254;-85
2022/11/26 02:36:52;;;;;;;8.33;3.13;;;11.40;79.20;11.40;97349.00;;;;5051062;28;20228;-85
2022/11/26 02:39:24;;;;;;;3.00;2.70;;;11.40;79.20;11.40;97348.00;;;;5052139;28;20212;-86
2022/11/26 02:41:55;;;;;;;5.87;2.60;;;11.40;79.20;11.50;97358.00;;;;5051389;28;20283;-86
2022/11/26 02:44:26;;;;;;;4.33;2.13;;;11.40;79.30;11.50;97351.00;;;;5051174;28;20235;-86
2022/11/26 02:47:01;;;;;;;2.47;2.13;;;11.40;79.30;11.50;97347.00;;;;5049368;28;20346;-86
2022/11/26 02:49:31;;;;;;;8.57;2.97;;;11.40;79.30;11.50;97355.00;;;;5047180;28;20215;-86
2022/11/26 02:52:02;;;;;;;7.57;2.33;;;11.40;79.40;11.50;97354.00;;;;5048368;28;20689;-86
2022/11/26 02:54:32;;;;;;;8.23;2.23;;;11.50;79.40;11.50;97358.00;;;;5047941;28;20212;-86
2022/11/26 02:57:02;;;;;;;13.80;3.00;;;11.40;79.40;11.50;97359.00;;;;5053525;28;20251;-86
2022/11/26 02:59:31;;;;;;;4.17;1.80;;;11.50;79.50;11.50;97364.00;;;;5051424;28;20235;-86
2022/11/26 03:02:05;;;;;;;10.87;2.43;;;11.50;79.40;11.50;97371.00;;;;5050612;28;20204;-86
2022/11/26 03:04:39;;;;;;;3.67;2.27;;;11.50;79.30;11.50;97376.00;;;;5051569;28;20582;-85
2022/11/26 03:07:11;;;;;;;2.60;2.37;;;11.50;79.20;11.50;97379.00;;;;5051058;28;20930;-86
2022/11/26 03:09:42;;;;;;;3.47;2.40;;;11.50;79.10;11.50;97378.00;;;;5064855;28;20196;-86
2022/11/26 03:12:10;;;;;;;4.13;2.23;;;11.50;79.10;11.50;97383.00;;;;5052996;28;20204;-86
2022/11/26 03:14:37;;;;;;;6.17;2.43;;;11.50;79.10;11.50;97383.00;;;;5051120;28;20204;-86
2022/11/26 03:17:06;;;;;;;4.97;1.73;;;11.50;79.10;11.50;97381.00;;;;5051254;28;20307;-86
2022/11/26 03:19:33;;;;;;;4.70;1.87;;;11.50;79.20;11.50;97370.00;;;;5051230;28;20295;-86
2022/11/26 03:22:00;;;;;;;10.60;2.90;;;11.50;79.30;11.60;97374.00;;;;5051758;28;20212;-86
2022/11/26 03:24:28;;;;;;;10.30;2.63;;;11.50;79.30;11.60;97376.00;;;;5046931;28;20229;-86
2022/11/26 03:26:55;;;;;;;2.53;2.00;;;11.50;79.20;11.60;97377.00;;;;5049786;28;20299;-86
2022/11/26 03:29:22;;;;;;;2.53;2.00;;;11.50;79.10;11.60;97380.00;;;;5050310;28;20713;-86
2022/11/26 03:31:52;;;;;;;4.17;2.03;;;11.50;79.00;11.60;97376.00;;;;5049323;28;20228;-86
2022/11/26 03:34:20;;;;;;;5.90;2.47;;;11.50;79.00;11.50;97375.00;;;;5050456;28;20298;-85
2022/11/26 03:36:48;;;;;;;5.57;2.27;;;11.50;79.00;11.60;97371.00;;;;5048712;28;20351;-86
2022/11/26 03:39:15;;;;;;;4.00;2.10;;;11.50;79.10;11.50;97373.00;;;;5056015;28;20270;-86
2022/11/26 03:41:43;;;;;;;5.13;2.07;;;11.50;79.10;11.50;97376.00;;;;5054589;28;20616;-85
2022/11/26 03:44:11;;;;;;;6.80;2.50;;;11.50;79.10;11.50;97378.00;;;;5054388;28;20274;-87
2022/11/26 03:46:38;;;;;;;16.03;2.70;;;11.50;79.10;11.60;97381.00;;;;5050401;28;20220;-86
2022/11/26 03:49:06;;;;;;;3.70;2.00;;;11.50;79.10;11.60;97387.00;;;;5054454;28;20284;-85
2022/11/26 03:51:34;;;;;;;7.67;2.10;;;11.50;79.20;11.60;97387.00;;;;5053870;28;20201;-86
2022/11/26 03:54:02;;;;;;;5.63;2.13;;;11.50;79.10;11.60;97389.00;;;;5054410;28;20232;-86
2022/11/26 03:56:29;;;;;;;4.83;1.80;;;11.50;79.10;11.60;97398.00;;;;5053941;28;20212;-86
2022/11/26 03:58:56;;;;;;;3.57;1.83;;;11.50;79.10;11.60;97390.00;;;;5054208;28;20270;-85
2022/11/26 04:01:24;;;;;;;2.80;1.80;;;11.50;79.10;11.60;97392.00;;;;5054965;28;20224;-86
2022/11/26 04:03:51;;;;;;;6.37;2.53;;;11.50;79.10;11.60;97396.00;;;;5055140;28;20220;-86
2022/11/26 04:06:18;;;;;;;8.03;2.00;;;11.60;79.20;11.60;97401.00;;;;5053784;28;20243;-86
2022/11/26 04:08:47;;;;;;;21.23;3.33;;;11.60;79.30;11.60;97399.00;;;;5049852;28;20204;-85
2022/11/26 04:11:14;;;;;;;2.97;2.07;;;11.60;79.30;11.60;97402.00;;;;5050079;28;20224;-85
2022/11/26 04:13:42;;;;;;;5.40;2.30;;;11.60;79.30;11.60;97406.00;;;;5045986;28;20612;-83
2022/11/26 04:16:10;;;;;;;8.70;1.73;;;11.60;79.30;11.60;97409.00;;;;5038886;28;20321;-85
2022/11/26 04:18:37;;;;;;;4.83;2.53;;;11.60;79.40;11.60;97403.00;;;;5045065;28;20288;-83
2022/11/26 04:21:07;;;;;;;5.83;2.10;;;11.60;79.30;11.60;97410.00;;;;5050509;28;20287;-84
2022/11/26 04:23:34;;;;;;;6.90;2.77;;;11.60;79.30;11.60;97401.00;;;;5050341;28;20251;-85
2022/11/26 04:26:03;;;;;;;6.50;2.07;;;11.60;79.30;11.60;97403.00;;;;5050068;28;20299;-83
2022/11/26 04:28:30;;;;;;;3.87;1.90;;;11.60;79.30;11.60;97418.00;;;;5049620;28;20674;-84
2022/11/26 04:30:57;;;;;;;3.23;1.80;;;11.60;79.30;11.60;97420.00;;;;5048523;28;20304;-84
2022/11/26 04:33:25;;;;;;;3.50;2.00;;;11.60;79.30;11.60;97428.00;;;;5048902;28;20208;-84
2022/11/26 04:35:53;;;;;;;3.17;2.00;;;11.60;79.30;11.70;97426.00;;;;5041518;28;20823;-84
2022/11/26 04:38:20;;;;;;;7.03;2.23;;;11.60;79.30;11.70;97427.00;;;;5045584;28;20335;-83
2022/11/26 04:40:48;;;;;;;9.17;3.00;;;11.60;79.30;11.70;97432.00;;;;5049117;28;20220;-85
2022/11/26 04:43:16;;;;;;;7.10;2.13;;;11.60;79.30;11.70;97449.00;;;;5049289;28;20717;-84
2022/11/26 04:45:44;;;;;;;3.27;2.10;;;11.60;79.30;11.70;97449.00;;;;5048235;28;20271;-84
2022/11/26 04:48:11;;;;;;;5.00;2.10;;;11.60;79.20;11.70;97445.00;;;;5047368;28;20290;-85
2022/11/26 04:50:38;;;;;;;4.93;2.30;;;11.60;79.20;11.70;97446.00;;;;5047921;28;20250;-84
2022/11/26 04:53:05;;;;;;;3.60;2.30;;;11.70;79.30;11.70;97455.00;;;;5048594;28;20232;-84
2022/11/26 04:55:32;;;;;;;2.57;1.80;;;11.70;79.20;11.70;97451.00;;;;5048828;28;20304;-85
2022/11/26 04:58:00;;;;;;;7.70;2.20;;;11.60;79.10;11.70;97467.00;;;;5044172;28;20278;-84
2022/11/26 05:00:29;;;;;;;1.80;1.67;;;11.60;79.10;11.70;97461.00;;;;5042424;28;20211;-84
2022/11/26 05:02:56;;;;;;;5.10;2.00;;;11.70;79.10;11.70;97470.00;;;;5047188;28;20231;-84
2022/11/26 05:05:23;;;;;;;2.83;2.10;;;11.70;79.10;11.70;97472.00;;;;5048574;28;20294;-85
2022/11/26 05:07:50;;;;;;;3.80;1.90;;;11.60;79.10;11.70;97475.00;;;;5047905;28;20657;-85
2022/11/26 05:10:18;;;;;;;8.47;2.47;;;11.70;79.10;11.70;97472.00;;;;5043614;28;20201;-85
2022/11/26 05:12:45;;;;;;;3.43;2.10;;;11.70;79.00;11.70;97477.00;;;;5048741;28;20235;-85
2022/11/26 05:15:12;;;;;;;3.57;1.80;;;11.70;79.00;11.70;97463.00;;;;5043122;28;20625;-85
2022/11/26 05:17:41;;;;;;;4.87;1.97;;;11.70;79.10;11.70;97479.00;;;;5036961;28;20721;-85
2022/11/26 05:20:10;;;;;;;4.07;2.03;;;11.70;79.00;11.70;97477.00;;;;5043938;28;20710;-85
2022/11/26 05:22:37;;;;;;;3.03;1.70;;;11.70;78.90;11.70;97489.00;;;;5046566;28;20309;-85
2022/11/26 05:25:05;;;;;;;5.37;1.83;;;11.70;79.00;11.70;97481.00;;;;5048005;28;20324;-85
2022/11/26 05:27:32;;;;;;;8.60;2.10;;;11.70;79.10;11.70;97480.00;;;;5048576;28;20293;-85
2022/11/26 05:29:59;;;;;;;3.83;2.47;;;11.70;79.10;11.70;97487.00;;;;5049341;28;20207;-85
2022/11/26 05:32:27;;;;;;;6.30;3.10;;;11.60;79.00;11.70;97493.00;;;;5048784;28;20288;-85
2022/11/26 05:34:55;;;;;;;5.03;2.80;;;11.70;79.00;11.70;97491.00;;;;5048163;28;20296;-85
2022/11/26 05:37:22;;;;;;;4.60;2.43;;;11.70;79.00;11.70;97489.00;;;;5048983;28;20333;-85
2022/11/26 05:39:50;;;;;;;4.33;2.13;;;11.70;78.90;11.70;97499.00;;;;5049098;28;20390;-85
2022/11/26 05:42:17;;;;;;;4.80;2.57;;;11.70;79.00;11.70;97509.00;;;;5049315;28;20212;-84
2022/11/26 05:44:44;;;;;;;2.43;2.23;;;11.70;79.00;11.70;97503.00;;;;5046314;28;20235;-85
2022/11/26 05:47:11;;;;;;;5.67;2.40;;;11.70;78.90;11.70;97510.00;;;;5047555;28;20220;-86
2022/11/26 05:49:39;;;;;;;4.27;2.20;;;11.70;78.80;11.70;97501.00;;;;5043178;28;20654;-86
2022/11/26 05:52:07;;;;;;;4.97;1.93;;;11.70;78.90;11.70;97516.00;;;;5046162;28;20353;-86
2022/11/26 05:54:34;;;;;;;3.80;2.33;;;11.70;78.80;11.70;97517.00;;;;5040907;28;20204;-86
2022/11/26 05:57:02;;;;;;;4.83;2.30;;;11.70;78.90;11.70;97515.00;;;;5042333;28;20360;-86
2022/11/26 05:59:29;;;;;;;5.10;2.53;;;11.70;78.70;11.60;97521.00;;;;5040512;28;20232;-86
2022/11/26 06:01:56;;;;;;;4.30;2.13;;;11.60;78.60;11.60;97525.00;;;;5046793;28;20284;-86
2022/11/26 06:04:24;;;;;;;5.63;2.37;;;11.60;78.50;11.60;97525.00;;;;5043725;28;20643;-86
2022/11/26 06:06:51;;;;;;;8.87;2.57;;;11.60;78.50;11.60;97534.00;;;;5045075;28;20250;-86
2022/11/26 06:09:19;;;;;;;5.80;2.20;;;11.60;78.70;11.60;97528.00;;;;5041630;28;20291;-86
2022/11/26 06:11:48;;;;;;;5.17;2.20;;;11.60;78.80;11.60;97531.00;;;;5046017;28;20228;-86
2022/11/26 06:14:16;;;;;;;6.70;2.60;;;11.60;78.80;11.60;97534.00;;;;5044762;28;20208;-86
2022/11/26 06:16:43;;;;;;;4.33;2.33;;;11.60;78.80;11.60;97531.00;;;;5037612;28;20311;-86
2022/11/26 06:19:11;;;;;;;7.63;2.60;;;11.60;78.80;11.60;97538.00;;;;5040948;28;20284;-87
2022/11/26 06:21:38;;;;;;;8.90;2.57;;;11.60;78.80;11.60;97538.00;;;;5037791;28;20232;-87
2022/11/26 06:24:06;;;;;;;3.13;2.10;;;11.60;78.80;11.60;97544.00;;;;5043267;28;20587;-87
2022/11/26 06:26:35;;;;;;;7.80;2.60;;;11.60;78.80;11.60;97553.00;;;;5040314;28;20678;-85
2022/11/26 06:29:03;;;;;;;13.00;3.40;;;11.60;78.70;11.60;97548.00;;;;5040385;28;20204;-85
2022/11/26 06:31:31;;;;;;;14.07;2.87;;;11.60;78.80;11.60;97547.00;;;;5047308;28;20208;-85
2022/11/26 06:33:59;;;;;;;3.90;2.40;;;11.60;78.90;11.60;97547.00;;;;5047508;28;20201;-86
2022/11/26 06:36:26;;;;;;;5.20;2.43;;;11.60;79.00;11.70;97556.00;;;;5046087;28;20303;-87
2022/11/26 06:38:53;;;;;;;3.47;1.93;;;11.60;79.00;11.70;97558.00;;;;5038806;28;20212;-88
2022/11/26 06:41:21;;;;;;;5.07;2.10;;;11.60;78.90;11.60;97562.00;;;;5041110;28;20308;-88
2022/11/26 06:43:49;;;;;;;2.57;2.03;;;11.60;78.90;11.70;97565.00;;;;5040062;28;20260;-88
2022/11/26 06:46:18;;;;;;;22.23;3.00;;;11.60;79.00;11.70;97571.00;;;;5041847;28;20274;-88
2022/11/26 06:48:45;;;;;;;3.90;2.23;;;11.60;79.00;11.70;97577.00;;;;5041595;28;20691;-89
2022/11/26 06:51:15;;;;;;;4.43;2.23;;;11.60;79.10;11.70;97591.00;;;;5044287;28;20299;-86
2022/11/26 06:53:43;;;;;;;5.57;2.23;;;11.60;79.10;11.70;97598.00;;;;5043471;28;20304;-87
2022/11/26 06:56:13;;;;;;;2.43;2.17;;;11.60;79.10;11.70;97592.00;;;;5039220;28;20247;-87
2022/11/26 06:58:40;;;;;;;5.20;2.80;;;11.60;79.30;11.70;97592.00;;;;5041413;28;20288;-86
2022/11/26 07:01:11;;;;;;;14.93;3.17;;;11.60;79.40;11.70;97592.00;;;;5036479;28;20216;-86
2022/11/26 07:03:38;;;;;;;4.07;2.23;;;11.60;79.80;11.60;97598.00;;;;5039931;28;20648;-86
2022/11/26 07:06:14;;;;;;;2.97;2.23;;;11.60;80.10;11.60;97595.00;;;;5043208;28;20654;-87
2022/11/26 07:08:41;;;;;;;5.70;2.10;;;11.60;80.20;11.60;97594.00;;;;5044596;28;20262;-87
2022/11/26 07:11:09;;;;;;;4.93;2.27;;;11.60;80.30;11.60;97599.00;;;;5043308;28;20205;-86
2022/11/26 07:13:36;;;;;;;11.87;3.00;;;11.60;80.50;11.50;97600.00;;;;5046977;28;20287;-87
2022/11/26 07:16:05;;;;;;;4.73;2.47;;;11.60;80.60;11.50;97609.00;;;;5048291;28;20747;-87
2022/11/26 07:18:34;;;;;;;17.33;3.73;;;11.60;80.70;11.50;97601.00;;;;5046371;28;20232;-87
2022/11/26 07:21:06;;;;;;;11.73;4.20;;;11.50;80.80;11.50;97617.00;;;;5052240;28;20702;-83
2022/11/26 07:23:34;;;;;;;9.40;3.60;;;11.50;80.90;11.50;97615.00;;;;5053974;28;20220;-84
2022/11/26 07:26:02;;;;;;;10.03;3.50;;;11.50;81.00;11.60;97623.00;;;;5052593;28;20299;-84
2022/11/26 07:28:30;;;;;;;4.70;3.37;;;11.50;81.20;11.60;97632.00;;;;5052389;28;20227;-85
2022/11/26 07:31:01;;;;;;;5.70;3.77;;;11.50;81.30;11.60;97620.00;;;;5052811;28;20200;-84
2022/11/26 07:33:29;;;;;;;4.30;3.90;;;11.50;81.20;11.60;97627.00;;;;5044961;28;20198;-83
2022/11/26 07:36:00;;;;;;;24.60;4.70;;;11.50;81.20;11.60;97624.00;;;;5047530;28;20252;-85
2022/11/26 07:38:28;;;;;;;5.93;3.50;;;11.50;81.20;11.60;97616.00;;;;5053641;28;20207;-83
2022/11/26 07:41:03;;;;;;;8.93;3.53;;;11.50;81.30;11.60;97620.00;;;;5053624;28;20575;-83
2022/11/26 07:43:30;;;;;;;5.47;3.30;;;11.50;81.20;11.60;97621.00;;;;5053441;28;20289;-83
2022/11/26 07:46:00;;;;;;;6.77;4.73;;;11.50;81.10;11.60;97625.00;;;;5049050;28;20632;-83
2022/11/26 07:48:29;;;;;;;7.93;5.37;;;11.50;81.00;11.60;97622.00;;;;5045023;28;20287;-83
2022/11/26 07:50:57;;;;;;;21.87;6.33;;;11.50;80.90;11.60;97624.00;;;;5046398;28;20418;-82
2022/11/26 07:53:27;;;;;;;15.40;6.03;;;11.50;80.80;11.60;97628.00;;;;5046674;28;20677;-81
2022/11/26 07:55:54;;;;;;;8.10;5.83;;;11.50;80.80;11.60;97632.00;;;;5046998;28;20307;-82
2022/11/26 07:58:21;;;;;;;10.37;6.13;;;11.50;80.80;11.60;97633.00;;;;5048093;28;20291;-83
2022/11/26 08:00:49;;;;;;;8.67;5.77;;;11.50;80.70;11.60;97628.00;;;;5048294;28;20280;-84
2022/11/26 08:03:16;;;;;;;6.27;4.73;;;11.40;80.70;11.60;97640.00;;;;5044737;28;20309;-82
2022/11/26 08:05:45;;;;;;;6.17;4.40;;;11.40;80.70;11.60;97646.00;;;;5047231;28;20620;-84
2022/11/26 08:08:14;;;;;;;6.83;3.50;;;11.40;80.70;11.60;97644.00;;;;5043136;28;20657;-84
2022/11/26 08:10:41;;;;;;;6.63;3.47;;;11.50;80.90;11.70;97637.00;;;;5040781;28;20319;-84
2022/11/26 08:13:08;;;;;;;4.73;3.37;;;11.40;81.10;11.70;97656.00;;;;5040690;28;20312;-84
2022/11/26 08:15:36;;;;;;;9.57;4.03;;;11.50;81.20;11.70;97645.00;;;;5047670;28;20582;-84
2022/11/26 08:18:04;;;;;;;3.77;2.90;;;11.50;81.40;11.70;97651.00;;;;5044206;28;20207;-84
2022/11/26 08:20:31;;;;;;;4.03;3.47;;;11.50;81.40;11.80;97651.00;;;;5045629;28;20213;-83
2022/11/26 08:22:58;;;;;;;7.77;3.57;;;11.60;81.50;11.80;97651.00;;;;5046888;28;20224;-88
2022/11/26 08:25:26;;;;;;;5.73;3.23;;;11.60;81.60;11.90;97654.00;;;;5055243;28;20229;-87
2022/11/26 08:27:54;;;;;;;6.20;2.93;;;11.60;81.60;11.90;97656.00;;;;5055316;28;20295;-88
2022/11/26 08:30:22;;;;;;;10.07;3.00;;;11.60;81.40;11.90;97655.00;;;;5055431;28;20239;-89
2022/11/26 08:32:49;;;;;;;13.37;3.70;;;11.70;81.40;11.90;97650.00;;;;5050803;28;20551;-87
2022/11/26 08:35:16;;;;;;;6.20;2.63;;;11.70;81.40;12.00;97665.00;;;;5054971;28;20651;-88
2022/11/26 08:37:43;;;;;;;4.30;2.73;;;11.70;81.30;12.00;97672.00;;;;5054598;28;20220;-87
2022/11/26 08:40:12;;;;;;;6.57;3.23;;;11.70;81.40;12.00;97664.00;;;;5054123;28;20295;-88
2022/11/26 08:42:40;;;;;;;5.60;2.53;;;11.80;81.40;12.00;97672.00;;;;5054165;28;20244;-88
2022/11/26 08:45:09;;;;;;;4.73;2.60;;;11.80;81.40;12.10;97668.00;;;;5054228;28;20312;-89
2022/11/26 08:47:36;;;;;;;2.77;2.57;;;11.80;81.40;12.10;97668.00;;;;5055117;28;20227;-88
2022/11/26 08:50:04;;;;;;;4.07;2.83;;;11.90;81.40;12.10;97670.00;;;;5055059;28;20243;-88
2022/11/26 08:52:31;;;;;;;4.20;2.60;;;11.90;81.50;12.20;97667.00;;;;5054604;28;20303;-88
2022/11/26 08:54:58;;;;;;;3.87;2.83;;;11.90;81.50;12.20;97675.00;;;;5054843;28;20204;-88
2022/11/26 08:57:25;;;;;;;4.63;3.10;;;11.90;81.60;12.20;97689.00;;;;5055028;28;20252;-84
2022/11/26 08:59:54;;;;;;;6.13;3.10;;;12.00;81.60;12.30;97681.00;;;;5045281;28;20260;-84
2022/11/26 09:02:22;;;;;;;5.03;3.47;;;12.00;81.50;12.30;97682.00;;;;5045594;28;20199;-85
2022/11/26 09:04:50;;;;;;;13.47;3.40;;;12.10;81.60;12.30;97695.00;;;;5044704;28;20228;-85
2022/11/26 09:07:17;;;;;;;5.67;3.53;;;12.10;81.60;12.40;97695.00;;;;5043357;28;20593;-85
2022/11/26 09:09:45;;;;;;;4.10;3.30;;;12.10;81.60;12.40;97700.00;;;;5040376;28;20269;-84
2022/11/26 09:12:12;;;;;;;6.33;3.47;;;12.10;81.50;12.40;97705.00;;;;5046451;28;20224;-84
2022/11/26 09:14:41;;;;;;;8.37;3.70;;;12.10;81.30;12.40;97710.00;;;;5044607;28;20209;-85
2022/11/26 09:17:11;;;;;;;10.03;3.50;;;12.20;81.30;12.40;97717.00;;;;5046102;28;20248;-84
2022/11/26 09:19:38;;;;;;;5.13;2.90;;;12.20;81.20;12.40;97711.00;;;;5039438;28;20227;-84
2022/11/26 09:22:06;;;;;;;3.83;2.83;;;12.20;81.20;12.50;97720.00;;;;5051250;28;20303;-82
2022/11/26 09:24:33;;;;;;;2.93;2.70;;;12.20;81.10;12.50;97718.00;;;;5049338;28;20224;-83
2022/11/26 09:27:00;;;;;;;4.07;2.83;;;12.20;81.10;12.50;97716.00;;;;5046959;28;20243;-85
2022/11/26 09:29:27;;;;;;;7.80;3.50;;;12.30;81.30;12.60;97726.00;;;;5043926;28;20281;-84
2022/11/26 09:31:58;;;;;;;5.17;2.50;;;12.30;81.30;12.60;97725.00;;;;5038892;28;20651;-84
2022/11/26 09:34:26;;;;;;;5.53;2.53;;;12.30;81.10;12.60;97731.00;;;;5038163;28;20900;-84
2022/11/26 09:36:53;;;;;;;3.23;2.87;;;12.30;81.10;12.70;97721.00;;;;5043390;28;20323;-84
2022/11/26 09:39:21;;;;;;;8.33;3.67;;;12.40;81.20;12.70;97731.00;;;;5044625;28;20220;-83
2022/11/26 09:41:56;;;;;;;5.33;3.50;;;12.40;81.20;12.70;97733.00;;;;5045495;28;20291;-84
2022/11/26 09:44:59;;;;;;;6.23;3.27;;;12.40;81.20;12.70;97736.00;;;;5042584;28;20297;-83
2022/11/26 09:47:31;;;;;;;3.17;2.77;;;12.50;81.00;12.70;97732.00;;;;5024333;28;20259;-88
2022/11/26 09:50:17;;;;;;;5.03;3.10;;;12.50;80.90;12.80;97732.00;;;;5035576;28;20773;-86
2022/11/26 09:52:52;;;;;;;3.67;2.73;;;12.50;80.90;12.80;97733.00;;;;5040754;28;20211;-86
2022/11/26 09:55:24;;;;;;;4.50;2.80;;;12.50;80.90;12.80;97733.00;;;;5039375;28;20204;-82
2022/11/26 09:58:03;;;;;;;6.03;3.00;;;12.50;80.60;12.80;97730.00;;;;5045430;28;20244;-85
2022/11/26 10:00:37;;;;;;;5.60;3.60;;;12.60;80.40;12.90;97733.00;;;;5038108;28;20216;-84
2022/11/26 10:03:14;;;;;;;7.63;3.30;;;12.60;80.40;12.90;97737.00;;;;5044058;28;20195;-82
2022/11/26 10:05:51;;;;;;;6.27;3.73;;;12.60;80.50;12.90;97732.00;;;;5046600;28;20275;-83
2022/11/26 10:09:03;;;;;;;5.07;3.30;;;12.60;80.50;12.90;97725.00;;;;5042232;28;20221;-83
2022/11/26 10:11:40;;;;;;;4.80;2.80;;;12.70;80.50;13.00;97730.00;;;;5043856;28;20669;-83
2022/11/26 10:14:25;;;;;;;5.60;3.17;;;12.70;80.70;13.00;97728.00;;;;5052624;28;20709;-84
2022/11/26 10:17:16;;;;;;;4.00;3.30;;;12.70;80.70;13.00;97730.00;;;;5054990;28;20299;-85
2022/11/26 10:20:07;;;;;;;3.03;2.70;;;12.80;80.50;13.10;97723.00;;;;5064343;28;20618;-85
2022/11/26 10:22:51;;;;;;;5.57;2.90;;;12.80;80.30;13.10;97720.00;;;;5052557;28;20201;-84
2022/11/26 10:25:24;;;;;;;7.67;3.30;;;12.80;80.30;13.10;97721.00;;;;5045982;28;20303;-85
2022/11/26 10:27:56;;;;;;;6.77;3.00;;;12.80;80.20;13.10;97722.00;;;;5051504;28;20271;-85
2022/11/26 10:30:26;;;;;;;4.30;2.67;;;12.80;80.00;13.10;97717.00;;;;5053148;28;20212;-85
2022/11/26 10:32:56;;;;;;;5.63;3.10;;;12.80;79.90;13.10;97729.00;;;;5046892;28;20204;-86
2022/11/26 10:35:27;;;;;;;3.63;2.60;;;12.80;79.80;13.10;97723.00;;;;5073337;28;20269;-84
2022/11/26 10:37:57;;;;;;;4.70;2.93;;;12.90;79.70;13.10;97725.00;;;;5041885;28;20201;-86
2022/11/26 10:40:28;;;;;;;6.57;3.30;;;12.90;79.60;13.10;97724.00;;;;5063874;28;20224;-86
2022/11/26 10:43:11;;;;;;;4.20;2.93;;;12.90;79.50;13.20;97726.00;;;;5052782;28;20287;-87
2022/11/26 10:45:41;;;;;;;7.63;3.10;;;12.90;79.10;13.20;97725.00;;;;5052576;28;20739;-85
2022/11/26 10:48:21;;;;;;;4.13;2.60;;;12.90;79.20;13.20;97729.00;;;;5051206;28;20193;-85
2022/11/26 10:51:03;;;;;;;11.83;3.57;;;12.90;78.70;13.20;97718.00;;;;5049349;28;20607;-84
2022/11/26 10:53:47;;;;;;;4.20;2.57;;;13.00;78.80;13.20;97715.00;;;;5048317;28;20224;-85
2022/11/26 10:56:20;;;;;;;6.20;3.20;;;13.00;79.70;13.20;97719.00;;;;5051767;28;20298;-85
2022/11/26 10:58:52;;;;;;;12.27;3.50;;;13.00;78.70;13.20;97717.00;;;;5052822;28;20688;-86
2022/11/26 11:01:20;;;;;;;6.73;2.70;;;13.00;78.90;13.20;97714.00;;;;5052005;28;20204;-84
2022/11/26 11:03:52;;;;;;;8.43;3.37;;;13.00;79.10;13.20;97708.00;;;;5051643;28;20573;-84
2022/11/26 11:06:40;;;;;;;6.13;3.20;;;13.00;79.00;13.20;97716.00;;;;5052429;28;20343;-85